createdAt,value
2023-04-02T00:00:05.502Z,96502.09
2023-04-02T00:03:14.239Z,96497.69
2023-04-02T00:06:33.483Z,96506.97
2023-04-02T00:09:37.762Z,96515.88
2023-04-02T00:12:39.384Z,96517.88
2023-04-02T00:15:43.820Z,96503.31
2023-04-02T00:18:53.657Z,96514.69
2023-04-02T00:21:57.178Z,96514.16
2023-04-02T00:25:02.516Z,96504.81
2023-04-02T00:28:04.752Z,96507.94
2023-04-02T00:31:10.522Z,96518.88
2023-04-02T00:34:26.088Z,96504.13
2023-04-02T00:37:38.675Z,96505.69
2023-04-02T00:40:42.219Z,96511.44
2023-04-02T00:43:46.806Z,96511.53
2023-04-02T00:46:50.082Z,96515.47
2023-04-02T00:50:00.015Z,96510.50
2023-04-02T00:53:10.582Z,96515.13
2023-04-02T00:56:25.780Z,96517.38
2023-04-02T00:59:33.675Z,96516.50
2023-04-02T01:02:40.815Z,96517.59
2023-04-02T01:05:50.214Z,96515.28
2023-04-02T01:09:00.549Z,96519.94
2023-04-02T01:12:21.105Z,96507.41
2023-04-02T01:15:33.742Z,96514.34
2023-04-02T01:18:50.216Z,96516.50
2023-04-02T01:22:15.771Z,96516.72
2023-04-02T01:25:24.956Z,96515.91
2023-04-02T01:28:49.272Z,96525.56
2023-04-02T01:31:53.262Z,96519.63
2023-04-02T01:34:56.163Z,96516.13
2023-04-02T01:38:10.644Z,96530.88
2023-04-02T01:41:23.653Z,96529.03
2023-04-02T01:44:41.847Z,96521.25
2023-04-02T01:47:44.143Z,96533.75
2023-04-02T01:50:49.742Z,96523.53
2023-04-02T01:53:51.750Z,96526.31
2023-04-02T01:56:53.534Z,96527.84
2023-04-02T01:59:55.602Z,96523.31
2023-04-02T02:02:59.096Z,96532.97
2023-04-02T02:06:02.762Z,96526.34
2023-04-02T02:09:07.234Z,96531.75
2023-04-02T02:12:13.666Z,96534.75
2023-04-02T02:15:17.754Z,96546.00
2023-04-02T02:18:23.275Z,96543.63
2023-04-02T02:21:36.827Z,96541.47
2023-04-02T02:24:38.971Z,96548.44
2023-04-02T02:27:50.359Z,96550.22
2023-04-02T02:31:02.630Z,96547.41
2023-04-02T02:34:12.837Z,96552.47
2023-04-02T02:37:23.190Z,96550.59
2023-04-02T02:40:36.476Z,96558.38
2023-04-02T02:43:41.828Z,96562.28
2023-04-02T02:46:49.814Z,96558.66
2023-04-02T02:49:55.510Z,96559.38
2023-04-02T02:53:00.321Z,96565.41
2023-04-02T02:56:05.697Z,96566.41
2023-04-02T02:59:16.857Z,96568.66
2023-04-02T03:02:19.038Z,96575.38
2023-04-02T03:05:23.728Z,96578.25
2023-04-02T03:08:43.630Z,96578.19
2023-04-02T03:12:12.283Z,96583.94
2023-04-02T03:15:19.625Z,96586.84
2023-04-02T03:18:33.380Z,96587.88
2023-04-02T03:21:43.709Z,96598.47
2023-04-02T03:25:02.004Z,96595.56
2023-04-02T03:28:14.429Z,96595.44
2023-04-02T03:31:25.394Z,96597.41
2023-04-02T03:34:53.951Z,96598.69
2023-04-02T03:38:04.760Z,96604.75
2023-04-02T03:41:17.005Z,96612.50
2023-04-02T03:44:28.712Z,96607.50
2023-04-02T03:47:47.339Z,96616.22
2023-04-02T03:51:02.991Z,96620.84
2023-04-02T03:54:05.213Z,96620.53
2023-04-02T03:57:21.120Z,96620.50
2023-04-02T04:00:41.365Z,96626.06
2023-04-02T04:04:07.656Z,96624.41
2023-04-02T04:07:27.884Z,96633.00
2023-04-02T04:10:31.096Z,96637.31
2023-04-02T04:13:59.345Z,96639.97
2023-04-02T04:17:30.400Z,96646.31
2023-04-02T04:20:45.985Z,96646.25
2023-04-02T04:23:51.480Z,96654.28
2023-04-02T04:27:33.459Z,96648.97
2023-04-02T04:31:00.048Z,96663.56
2023-04-02T04:34:11.177Z,96658.63
2023-04-02T04:37:25.263Z,96659.72
2023-04-02T04:40:36.171Z,96662.19
2023-04-02T04:43:52.219Z,96672.28
2023-04-02T04:46:56.874Z,96676.84
2023-04-02T04:50:16.701Z,96672.00
2023-04-02T04:53:27.771Z,96684.16
2023-04-02T04:56:32.323Z,96680.94
2023-04-02T04:59:55.320Z,96692.00
2023-04-02T05:03:13.372Z,96690.78
2023-04-02T05:06:44.827Z,96696.44
2023-04-02T05:09:59.558Z,96697.34
2023-04-02T05:13:09.281Z,96704.25
2023-04-02T05:16:31.343Z,96708.81
2023-04-02T05:20:00.957Z,96707.75
2023-04-02T05:23:12.357Z,96706.47
2023-04-02T05:26:33.622Z,96709.19
2023-04-02T05:29:41.435Z,96717.09
2023-04-02T05:32:47.426Z,96721.97
2023-04-02T05:35:55.949Z,96713.72
2023-04-02T05:38:59.572Z,96707.34
2023-04-02T05:42:23.366Z,96715.28
2023-04-02T05:45:37.471Z,96715.03
2023-04-02T05:48:43.783Z,96710.47
2023-04-02T05:51:52.382Z,96718.50
2023-04-02T05:55:05.007Z,96719.06
2023-04-02T06:01:37.572Z,96728.81
2023-04-02T06:05:04.239Z,96723.41
2023-04-02T06:08:15.654Z,96721.47
2023-04-02T06:11:23.811Z,96726.13
2023-04-02T06:14:26.639Z,96723.53
2023-04-02T06:17:29.874Z,96737.53
2023-04-02T06:20:33.004Z,96729.22
2023-04-02T06:23:49.954Z,96723.94
2023-04-02T06:26:59.834Z,96726.13
2023-04-02T06:30:06.176Z,96732.91
2023-04-02T06:33:11.718Z,96742.41
2023-04-02T06:36:16.845Z,96752.81
2023-04-02T06:39:24.393Z,96746.47
2023-04-02T06:42:31.132Z,96751.25
2023-04-02T06:46:18.123Z,96757.75
2023-04-02T06:49:41.545Z,96763.72
2023-04-02T06:52:51.704Z,96770.63
2023-04-02T06:56:04.395Z,96776.38
2023-04-02T06:59:07.817Z,96786.00
2023-04-02T07:02:46.651Z,96788.75
2023-04-02T07:05:48.297Z,96787.47
2023-04-02T07:08:50.100Z,96793.69
2023-04-02T07:11:52.819Z,96795.94
2023-04-02T07:14:55.109Z,96797.38
2023-04-02T07:17:59.164Z,96801.00
2023-04-02T07:21:01.335Z,96803.13
2023-04-02T07:24:02.981Z,96807.56
2023-04-02T07:27:04.488Z,96802.69
2023-04-02T07:30:07.450Z,96807.00
2023-04-02T07:33:13.998Z,96810.66
2023-04-02T07:36:19.322Z,96814.47
2023-04-02T07:39:20.852Z,96822.97
2023-04-02T07:42:22.381Z,96821.81
2023-04-02T07:45:23.931Z,96822.16
2023-04-02T07:48:25.681Z,96833.09
2023-04-02T07:51:27.257Z,96832.88
2023-04-02T07:54:30.331Z,96831.34
2023-04-02T07:57:32.117Z,96844.38
2023-04-02T08:00:33.740Z,96845.66
2023-04-02T08:03:35.624Z,96848.91
2023-04-02T08:06:37.242Z,96854.69
2023-04-02T08:09:38.756Z,96852.13
2023-04-02T08:12:40.521Z,96855.59
2023-04-02T08:15:42.693Z,96858.03
2023-04-02T08:18:46.381Z,96863.00
2023-04-02T08:21:51.348Z,96864.63
2023-04-02T08:24:52.958Z,96870.78
2023-04-02T08:27:54.510Z,96878.69
2023-04-02T08:30:56.100Z,96878.22
2023-04-02T08:33:58.764Z,96882.28
2023-04-02T08:37:00.592Z,96884.53
2023-04-02T08:40:03.633Z,96888.16
2023-04-02T08:43:30.999Z,96896.94
2023-04-02T08:46:44.928Z,96890.25
2023-04-02T08:49:57.653Z,96899.19
2023-04-02T08:53:00.620Z,96900.50
2023-04-02T08:56:17.609Z,96898.16
2023-04-02T08:59:37.896Z,96905.13
2023-04-02T09:02:52.990Z,96902.69
2023-04-02T09:05:56.105Z,96913.34
2023-04-02T09:08:58.830Z,96911.72
2023-04-02T09:12:05.456Z,96906.16
2023-04-02T09:15:29.474Z,96903.03
2023-04-02T09:18:32.513Z,96910.69
2023-04-02T09:21:40.243Z,96913.66
2023-04-02T09:24:41.802Z,96916.84
2023-04-02T09:27:47.972Z,96921.97
2023-04-02T09:31:07.198Z,96929.75
2023-04-02T09:34:47.242Z,96927.88
2023-04-02T09:38:11.520Z,96929.78
2023-04-02T09:41:21.009Z,96928.84
2023-04-02T09:44:22.512Z,96931.94
2023-04-02T09:47:27.099Z,96934.88
2023-04-02T09:50:33.352Z,96938.34
2023-04-02T09:53:39.891Z,96939.63
2023-04-02T09:57:02.775Z,96935.75
2023-04-02T10:03:31.528Z,96942.47
2023-04-02T10:06:34.855Z,96946.97
2023-04-02T10:09:38.456Z,96945.41
2023-04-02T10:12:42.154Z,96948.28
2023-04-02T10:15:49.766Z,96955.66
2023-04-02T10:18:57.590Z,96967.13
2023-04-02T10:22:03.046Z,96965.22
2023-04-02T10:25:17.603Z,96971.97
2023-04-02T10:28:33.418Z,96966.13
2023-04-02T10:31:55.629Z,96969.03
2023-04-02T10:35:26.384Z,96979.38
2023-04-02T10:38:47.424Z,96971.47
2023-04-02T10:42:35.012Z,96984.19
2023-04-02T10:45:45.177Z,96981.44
2023-04-02T10:48:54.334Z,96982.50
2023-04-02T10:52:03.832Z,96983.72
2023-04-02T10:55:18.156Z,96993.13
2023-04-02T10:58:24.521Z,96997.72
2023-04-02T11:01:29.721Z,96990.97
2023-04-02T11:04:56.737Z,97000.66
2023-04-02T11:08:20.105Z,96994.56
2023-04-02T11:11:23.066Z,96993.63
2023-04-02T11:14:28.283Z,96998.44
2023-04-02T11:17:29.844Z,96992.81
2023-04-02T11:20:49.615Z,96992.53
2023-04-02T11:24:00.107Z,96993.13
2023-04-02T11:27:16.966Z,97004.22
2023-04-02T11:30:25.546Z,97007.69
2023-04-02T11:33:37.374Z,97010.75
2023-04-02T11:36:55.367Z,97008.56
2023-04-02T11:39:59.239Z,97007.22
2023-04-02T11:43:35.951Z,97011.16
2023-04-02T11:46:42.977Z,97013.66
2023-04-02T11:49:57.530Z,97019.81
2023-04-02T11:53:05.298Z,97016.13
2023-04-02T11:56:19.966Z,97020.63
2023-04-02T11:59:36.936Z,97023.03
2023-04-02T12:02:57.074Z,97018.78
2023-04-02T12:06:13.209Z,97028.44
2023-04-02T12:09:14.745Z,97030.13
2023-04-02T12:12:29.029Z,97030.44
2023-04-02T12:15:37.822Z,97034.47
2023-04-02T12:18:54.150Z,97040.03
2023-04-02T12:21:56.383Z,97034.91
2023-04-02T12:25:15.906Z,97036.59
2023-04-02T12:28:18.471Z,97036.31
2023-04-02T12:31:22.779Z,97039.88
2023-04-02T12:34:29.923Z,97052.69
2023-04-02T12:37:31.854Z,97051.41
2023-04-02T12:40:33.940Z,97054.69
2023-04-02T12:43:37.943Z,97060.22
2023-04-02T12:46:40.530Z,97057.41
2023-04-02T12:49:43.849Z,97064.16
2023-04-02T12:52:47.762Z,97067.19
2023-04-02T12:55:51.480Z,97073.94
2023-04-02T12:58:58.299Z,97074.03
2023-04-02T13:02:02.357Z,97075.34
2023-04-02T13:05:04.216Z,97073.38
2023-04-02T13:08:06.032Z,97070.88
2023-04-02T13:11:07.932Z,97077.50
2023-04-02T13:14:19.882Z,97079.88
2023-04-02T13:17:44.229Z,97085.13
2023-04-02T13:21:06.274Z,97089.41
2023-04-02T13:24:20.531Z,97094.44
2023-04-02T13:27:22.416Z,97091.66
2023-04-02T13:30:26.568Z,97088.50
2023-04-02T13:33:28.043Z,97096.63
2023-04-02T13:36:29.816Z,97096.75
2023-04-02T13:39:31.421Z,97100.25
2023-04-02T13:42:32.996Z,97100.00
2023-04-02T13:45:38.574Z,97101.53
2023-04-02T13:48:40.228Z,97111.91
2023-04-02T13:51:47.851Z,97112.97
2023-04-02T13:54:52.920Z,97114.38
2023-04-02T13:57:56.514Z,97115.75
2023-04-02T14:00:58.150Z,97118.91
2023-04-02T14:04:00.473Z,97122.63
2023-04-02T14:07:02.207Z,97125.09
2023-04-02T14:10:31.483Z,97131.97
2023-04-02T14:13:36.005Z,97125.34
2023-04-02T14:17:19.596Z,97138.00
2023-04-02T14:20:42.155Z,97144.91
2023-04-02T14:24:02.672Z,97148.59
2023-04-02T14:27:24.242Z,97147.09
2023-04-02T14:30:56.560Z,97158.72
2023-04-02T14:34:22.897Z,97159.75
2023-04-02T14:37:44.633Z,97174.63
2023-04-02T14:40:58.906Z,97175.53
2023-04-02T14:44:04.214Z,97174.13
2023-04-02T14:47:13.556Z,97183.25
2023-04-02T14:50:33.177Z,97185.06
2023-04-02T14:53:52.632Z,97188.91
2023-04-02T14:56:59.306Z,97189.97
2023-04-02T15:00:10.662Z,97192.41
2023-04-02T15:03:18.337Z,97191.00
2023-04-02T15:06:49.504Z,97194.91
2023-04-02T15:10:12.385Z,97193.75
2023-04-02T15:13:21.149Z,97198.31
2023-04-02T15:16:26.676Z,97198.47
2023-04-02T15:19:28.266Z,97204.41
2023-04-02T15:22:42.370Z,97204.28
2023-04-02T15:26:22.322Z,97207.19
2023-04-02T15:29:39.184Z,97207.63
2023-04-02T15:32:43.155Z,97208.97
2023-04-02T15:35:51.101Z,97211.84
2023-04-02T15:39:15.374Z,97208.25
2023-04-02T15:42:30.530Z,97206.78
2023-04-02T15:45:31.991Z,97214.63
2023-04-02T15:48:42.173Z,97217.91
2023-04-02T15:52:11.478Z,97218.72
2023-04-02T15:55:39.561Z,97221.44
2023-04-02T15:59:13.727Z,97222.34
2023-04-02T16:02:37.300Z,97226.44
2023-04-02T16:06:19.286Z,97229.22
2023-04-02T16:09:47.906Z,97230.97
2023-04-02T16:12:52.181Z,97231.84
2023-04-02T16:16:03.073Z,97239.50
2023-04-02T16:19:16.776Z,97242.03
2023-04-02T16:22:28.989Z,97248.97
2023-04-02T16:25:53.570Z,97248.00
2023-04-02T16:29:13.882Z,97257.63
2023-04-02T16:32:52.803Z,97259.88
2023-04-02T16:36:29.991Z,97259.59
2023-04-02T16:39:51.308Z,97263.13
2023-04-02T16:42:58.727Z,97261.44
2023-04-02T16:46:31.746Z,97257.50
2023-04-02T16:50:38.010Z,97270.19
2023-04-02T16:53:54.502Z,97281.69
2023-04-02T16:57:31.945Z,97277.31
2023-04-02T17:00:44.919Z,97287.03
2023-04-02T17:04:18.324Z,97287.28
2023-04-02T17:07:27.509Z,97283.56
2023-04-02T17:10:33.331Z,97288.91
2023-04-02T17:13:46.859Z,97288.63
2023-04-02T17:16:52.412Z,97293.63
2023-04-02T17:19:59.950Z,97298.28
2023-04-02T17:23:03.656Z,97303.59
2023-04-02T17:26:09.112Z,97294.06
2023-04-02T17:29:18.973Z,97312.34
2023-04-02T17:32:25.979Z,97312.75
2023-04-02T17:35:48.663Z,97314.84
2023-04-02T17:39:15.663Z,97317.59
2023-04-02T17:42:17.099Z,97322.00
2023-04-02T17:46:01.706Z,97333.19
2023-04-02T17:49:17.825Z,97339.97
2023-04-02T17:52:33.660Z,97338.72
2023-04-02T17:56:06.066Z,97350.22
2023-04-02T17:59:26.378Z,97345.72
2023-04-02T18:02:36.900Z,97351.50
2023-04-02T18:06:00.520Z,97356.03
2023-04-02T18:09:23.986Z,97360.78
2023-04-02T18:12:43.730Z,97372.88
2023-04-02T18:16:15.887Z,97363.06
2023-04-02T18:19:40.335Z,97369.81
2023-04-02T18:22:49.222Z,97372.06
2023-04-02T18:26:38.965Z,97380.06
2023-04-02T18:30:00.052Z,97394.19
2023-04-02T18:33:14.238Z,97395.84
2023-04-02T18:36:33.308Z,97404.03
2023-04-02T18:39:37.909Z,97404.88
2023-04-02T18:43:11.706Z,97408.16
2023-04-02T18:46:37.374Z,97408.34
2023-04-02T18:49:43.468Z,97413.69
2023-04-02T18:52:45.336Z,97411.41
2023-04-02T18:55:51.651Z,97427.34
2023-04-02T18:59:14.565Z,97433.44
2023-04-02T19:02:37.911Z,97440.41
2023-04-02T19:06:03.349Z,97435.56
2023-04-02T19:09:13.022Z,97448.41
2023-04-02T19:12:20.196Z,97446.19
2023-04-02T19:15:26.383Z,97446.63
2023-04-02T19:19:10.358Z,97462.25
2023-04-02T19:22:51.465Z,97457.28
2023-04-02T19:26:09.570Z,97467.97
2023-04-02T19:29:11.056Z,97471.66
2023-04-02T19:32:27.442Z,97469.59
2023-04-02T19:35:53.821Z,97470.41
2023-04-02T19:39:20.938Z,97474.53
2023-04-02T19:42:37.257Z,97487.66
2023-04-02T19:45:41.663Z,97492.56
2023-04-02T19:49:19.781Z,97495.44
2023-04-02T19:52:21.462Z,97492.97
2023-04-02T19:55:23.166Z,97498.91
2023-04-02T19:58:27.644Z,97508.34
2023-04-02T20:01:29.286Z,97507.34
2023-04-02T20:04:30.850Z,97511.66
2023-04-02T20:07:32.406Z,97506.13
2023-04-02T20:10:34.992Z,97519.44
2023-04-02T20:13:37.026Z,97521.88
2023-04-02T20:16:38.678Z,97524.53
2023-04-02T20:19:40.700Z,97529.44
2023-04-02T20:22:42.186Z,97532.72
2023-04-02T20:25:54.948Z,97531.72
2023-04-02T20:28:56.457Z,97528.44
2023-04-02T20:31:57.880Z,97530.28
2023-04-02T20:34:59.437Z,97534.41
2023-04-02T20:38:03.049Z,97539.75
2023-04-02T20:41:07.197Z,97544.66
2023-04-02T20:44:08.586Z,97551.69
2023-04-02T20:47:10.976Z,97550.00
2023-04-02T20:50:12.621Z,97555.53
2023-04-02T20:53:14.167Z,97558.59
2023-04-02T20:56:17.315Z,97555.75
2023-04-02T20:59:19.081Z,97555.72
2023-04-02T21:02:20.839Z,97567.97
2023-04-02T21:05:22.302Z,97570.47
2023-04-02T21:08:24.262Z,97568.22
2023-04-02T21:11:26.231Z,97568.41
2023-04-02T21:14:27.746Z,97575.59
2023-04-02T21:17:29.328Z,97571.31
2023-04-02T21:20:31.940Z,97579.50
2023-04-02T21:23:34.198Z,97583.34
2023-04-02T21:26:40.284Z,97583.78
2023-04-02T21:29:41.759Z,97579.91
2023-04-02T21:32:43.315Z,97584.81
2023-04-02T21:35:44.757Z,97586.25
2023-04-02T21:38:51.664Z,97589.34
2023-04-02T21:41:53.607Z,97584.22
2023-04-02T21:44:55.954Z,97590.16
2023-04-02T21:47:57.470Z,97588.53
2023-04-02T21:51:20.409Z,97584.22
2023-04-02T21:54:22.235Z,97588.13
2023-04-02T21:57:23.798Z,97591.59
2023-04-02T22:00:26.415Z,97592.19
2023-04-02T22:03:31.915Z,97592.38
2023-04-02T22:06:39.007Z,97591.16
2023-04-02T22:09:40.589Z,97590.00
2023-04-02T22:12:42.158Z,97594.59
2023-04-02T22:15:43.588Z,97599.41
2023-04-02T22:18:45.721Z,97596.22
2023-04-02T22:21:47.647Z,97599.50
2023-04-02T22:24:49.145Z,97599.88
2023-04-02T22:27:52.001Z,97599.59
2023-04-02T22:30:54.975Z,97609.03
2023-04-02T22:33:57.891Z,97604.34
2023-04-02T22:36:59.424Z,97614.75
2023-04-02T22:40:01.162Z,97614.44
2023-04-02T22:43:02.709Z,97611.56
2023-04-02T22:46:06.087Z,97617.88
2023-04-02T22:49:07.611Z,97618.38
2023-04-02T22:52:09.133Z,97625.44
2023-04-02T22:55:15.104Z,97624.13
2023-04-02T22:58:16.569Z,97623.41
2023-04-02T23:01:27.817Z,97624.63
2023-04-02T23:04:29.337Z,97625.00
2023-04-02T23:07:31.189Z,97632.06
2023-04-02T23:10:32.854Z,97638.13
2023-04-02T23:13:35.652Z,97639.16
2023-04-02T23:16:37.126Z,97640.09
2023-04-02T23:19:38.734Z,97646.69
2023-04-02T23:22:40.191Z,97645.53
2023-04-02T23:25:41.659Z,97650.28
2023-04-02T23:28:43.892Z,97645.34
2023-04-02T23:31:45.692Z,97654.13
2023-04-02T23:34:47.135Z,97659.19
2023-04-02T23:37:49.245Z,97651.97
2023-04-02T23:40:50.922Z,97655.09
2023-04-02T23:43:53.020Z,97652.28
2023-04-02T23:46:54.650Z,97652.72
2023-04-02T23:49:56.249Z,97649.53
2023-04-02T23:52:57.678Z,97655.59
2023-04-02T23:55:59.754Z,97643.59
2023-04-02T23:59:01.236Z,97648.06
